createdAt,value
2023-12-07T00:00:16.623Z,14.02
2023-12-07T00:03:03.626Z,13.98
2023-12-07T00:05:50.563Z,14.40
2023-12-07T00:08:37.445Z,14.00
2023-12-07T00:11:24.440Z,12.63
2023-12-07T00:14:11.320Z,13.73
2023-12-07T00:16:58.328Z,14.02
2023-12-07T00:19:45.320Z,14.32
2023-12-07T00:22:32.242Z,12.98
2023-12-07T00:25:19.251Z,12.93
2023-12-07T00:28:06.483Z,14.27
2023-12-07T00:30:53.760Z,13.68
2023-12-07T00:33:40.660Z,13.60
2023-12-07T00:36:27.523Z,14.00
2023-12-07T00:39:14.367Z,13.80
2023-12-07T00:42:01.243Z,13.27
2023-12-07T00:44:48.125Z,14.27
2023-12-07T00:47:34.991Z,14.25
2023-12-07T00:50:21.842Z,14.43
2023-12-07T00:53:09.938Z,13.65
2023-12-07T00:55:56.790Z,13.35
2023-12-07T00:58:43.665Z,14.13
2023-12-07T01:01:30.569Z,13.95
2023-12-07T01:04:18.898Z,13.25
2023-12-07T01:07:06.011Z,13.70
2023-12-07T01:09:52.996Z,14.18
2023-12-07T01:12:39.960Z,13.85
2023-12-07T01:15:27.040Z,14.77
2023-12-07T01:18:14.021Z,14.20
2023-12-07T01:21:00.945Z,14.60
2023-12-07T01:23:48.786Z,14.55
2023-12-07T01:26:37.625Z,14.23
2023-12-07T01:29:24.524Z,13.05
2023-12-07T01:32:11.593Z,12.85
2023-12-07T01:34:58.531Z,13.70
2023-12-07T01:37:45.649Z,13.95
2023-12-07T01:40:32.547Z,12.73
2023-12-07T01:43:21.717Z,14.23
2023-12-07T01:46:08.725Z,14.02
2023-12-07T01:48:55.954Z,14.13
2023-12-07T01:51:43.639Z,14.85
2023-12-07T01:54:30.844Z,12.93
2023-12-07T01:57:17.776Z,13.70
2023-12-07T02:00:05.269Z,14.27
2023-12-07T02:02:52.811Z,13.65
2023-12-07T02:05:43.630Z,13.43
2023-12-07T02:08:30.462Z,13.43
2023-12-07T02:11:17.393Z,14.35
2023-12-07T02:14:04.264Z,14.63
2023-12-07T02:17:12.728Z,14.30
2023-12-07T02:20:08.549Z,14.25
2023-12-07T02:23:03.328Z,14.05
2023-12-07T02:25:54.645Z,12.88
2023-12-07T02:28:41.589Z,14.13
2023-12-07T02:31:29.282Z,13.65
2023-12-07T02:34:16.406Z,15.15
2023-12-07T02:37:04.470Z,13.05
2023-12-07T02:39:52.531Z,13.40
2023-12-07T02:42:42.014Z,13.65
2023-12-07T02:45:29.037Z,13.98
2023-12-07T02:48:15.950Z,14.43
2023-12-07T02:51:02.844Z,14.30
2023-12-07T02:53:49.745Z,14.20
2023-12-07T02:56:36.564Z,13.52
2023-12-07T02:59:23.422Z,14.77
2023-12-07T03:02:10.332Z,14.65
2023-12-07T03:04:57.172Z,14.65
2023-12-07T03:07:44.020Z,13.30
2023-12-07T03:10:30.848Z,13.98
2023-12-07T03:13:17.774Z,14.52
2023-12-07T03:16:08.689Z,14.77
2023-12-07T03:18:55.611Z,14.02
2023-12-07T03:21:43.875Z,13.68
2023-12-07T03:24:30.737Z,14.50
2023-12-07T03:27:17.634Z,15.02
2023-12-07T03:30:06.445Z,14.10
2023-12-07T03:32:53.583Z,13.90
2023-12-07T03:35:40.643Z,14.73
2023-12-07T03:38:27.476Z,15.68
2023-12-07T03:41:14.473Z,15.43
2023-12-07T03:44:01.379Z,14.48
2023-12-07T03:46:48.231Z,15.45
2023-12-07T03:49:36.719Z,14.23
2023-12-07T03:52:24.036Z,15.27
2023-12-07T03:55:12.419Z,14.55
2023-12-07T03:57:59.510Z,16.53
2023-12-07T04:00:46.592Z,15.07
2023-12-07T04:03:33.480Z,13.88
2023-12-07T04:06:21.818Z,14.98
2023-12-07T04:09:08.754Z,13.60
2023-12-07T04:11:55.614Z,14.15
2023-12-07T04:14:42.494Z,14.27
2023-12-07T04:17:29.529Z,15.00
2023-12-07T04:20:16.476Z,14.90
2023-12-07T04:23:03.363Z,14.80
2023-12-07T04:25:50.294Z,14.95
2023-12-07T04:28:37.232Z,14.20
2023-12-07T04:31:24.155Z,14.80
2023-12-07T04:34:11.299Z,14.20
2023-12-07T04:36:58.241Z,14.15
2023-12-07T04:39:45.121Z,13.57
2023-12-07T04:42:32.022Z,14.88
2023-12-07T04:45:19.266Z,14.23
2023-12-07T04:48:06.660Z,14.70
2023-12-07T04:50:53.844Z,14.43
2023-12-07T04:53:40.778Z,13.65
2023-12-07T04:56:27.728Z,13.95
2023-12-07T04:59:14.701Z,14.65
2023-12-07T05:02:01.667Z,15.57
2023-12-07T05:04:48.613Z,15.57
2023-12-07T05:07:35.670Z,14.43
2023-12-07T05:10:22.641Z,14.90
2023-12-07T05:13:09.497Z,14.90
2023-12-07T05:15:56.384Z,14.93
2023-12-07T05:18:43.397Z,15.10
2023-12-07T05:21:30.290Z,14.77
2023-12-07T05:24:17.298Z,14.45
2023-12-07T05:27:04.964Z,14.52
2023-12-07T05:29:51.858Z,14.20
2023-12-07T05:32:38.756Z,13.77
2023-12-07T05:35:25.806Z,15.32
2023-12-07T05:38:12.705Z,15.07
2023-12-07T05:40:59.620Z,14.02
2023-12-07T05:43:46.513Z,14.88
2023-12-07T05:46:34.030Z,14.93
2023-12-07T05:49:23.499Z,15.57
2023-12-07T05:52:10.424Z,13.73
2023-12-07T05:54:57.294Z,16.15
2023-12-07T05:57:46.776Z,15.30
2023-12-07T06:00:33.700Z,14.50
2023-12-07T06:03:20.637Z,14.27
2023-12-07T06:06:07.774Z,15.35
2023-12-07T06:08:55.035Z,17.00
2023-12-07T06:11:41.889Z,14.07
2023-12-07T06:14:28.767Z,15.48
2023-12-07T06:17:15.668Z,14.73
2023-12-07T06:20:04.422Z,14.55
2023-12-07T06:22:51.489Z,16.50
2023-12-07T06:25:38.373Z,15.48
2023-12-07T06:28:25.269Z,14.52
2023-12-07T06:34:09.313Z,16.52
2023-12-07T06:36:56.339Z,15.68
2023-12-07T06:39:43.249Z,16.13
2023-12-07T06:42:30.103Z,15.05
2023-12-07T06:45:17.600Z,16.67
2023-12-07T06:48:05.049Z,17.92
2023-12-07T06:50:52.135Z,17.30
2023-12-07T06:53:39.021Z,18.92
2023-12-07T06:56:26.488Z,17.13
2023-12-07T06:59:13.366Z,17.40
2023-12-07T07:02:00.584Z,18.00
2023-12-07T07:04:50.108Z,16.58
2023-12-07T07:07:37.055Z,19.23
2023-12-07T07:10:24.111Z,17.58
2023-12-07T07:13:11.018Z,16.17
2023-12-07T07:15:57.906Z,17.75
2023-12-07T07:18:44.746Z,18.52
2023-12-07T07:21:31.800Z,15.70
2023-12-07T07:24:18.733Z,16.10
2023-12-07T07:27:06.224Z,18.98
2023-12-07T07:29:53.275Z,16.65
2023-12-07T07:32:40.400Z,15.80
2023-12-07T07:35:28.538Z,18.35
2023-12-07T07:38:15.882Z,18.00
2023-12-07T07:41:02.736Z,15.40
2023-12-07T07:43:49.651Z,15.65
2023-12-07T07:46:36.973Z,17.50
2023-12-07T07:49:23.957Z,17.20
2023-12-07T07:52:10.980Z,17.40
2023-12-07T07:54:57.822Z,17.13
2023-12-07T07:57:45.120Z,15.60
2023-12-07T08:00:34.009Z,16.17
2023-12-07T08:03:21.123Z,16.20
2023-12-07T08:06:08.529Z,17.38
2023-12-07T08:08:55.472Z,16.90
2023-12-07T08:11:42.407Z,15.65
2023-12-07T08:14:29.279Z,15.27
2023-12-07T08:17:16.279Z,15.52
2023-12-07T08:20:03.236Z,14.95
2023-12-07T08:22:51.109Z,15.45
2023-12-07T08:25:39.846Z,15.55
2023-12-07T08:28:26.758Z,16.10
2023-12-07T08:31:13.710Z,15.43
2023-12-07T08:34:01.789Z,14.57
2023-12-07T08:36:48.863Z,14.98
2023-12-07T08:39:35.715Z,16.67
2023-12-07T08:42:22.847Z,16.00
2023-12-07T08:45:10.159Z,14.27
2023-12-07T08:47:57.089Z,14.73
2023-12-07T08:50:44.060Z,15.25
2023-12-07T08:53:30.995Z,14.73
2023-12-07T08:56:17.848Z,15.02
2023-12-07T08:59:05.438Z,14.70
2023-12-07T09:01:52.441Z,15.07
2023-12-07T09:04:40.571Z,13.98
2023-12-07T09:07:27.875Z,13.85
2023-12-07T09:10:14.912Z,14.27
2023-12-07T09:13:01.865Z,14.80
2023-12-07T09:15:48.761Z,14.82
2023-12-07T09:18:36.639Z,15.65
2023-12-07T09:21:23.596Z,13.20
2023-12-07T09:24:10.476Z,13.95
2023-12-07T09:26:57.343Z,13.65
2023-12-07T09:29:44.140Z,14.35
2023-12-07T09:32:36.565Z,15.35
2023-12-07T09:35:23.936Z,15.25
2023-12-07T09:38:11.202Z,14.32
2023-12-07T09:40:58.098Z,15.43
2023-12-07T09:43:44.922Z,15.75
2023-12-07T09:46:32.309Z,16.73
2023-12-07T09:49:19.241Z,14.25
2023-12-07T09:52:08.577Z,15.05
2023-12-07T09:57:42.367Z,14.73
2023-12-07T10:00:29.976Z,14.27
2023-12-07T10:03:24.220Z,13.40
2023-12-07T10:06:11.437Z,14.50
2023-12-07T10:09:04.329Z,13.10
2023-12-07T10:11:51.343Z,14.90
2023-12-07T10:14:39.332Z,15.30
2023-12-07T10:17:28.644Z,14.93
2023-12-07T10:23:08.375Z,14.02
2023-12-07T10:25:55.916Z,15.13
2023-12-07T10:28:43.229Z,15.50
2023-12-07T10:31:32.153Z,15.52
2023-12-07T10:34:21.337Z,13.82
2023-12-07T10:37:08.351Z,14.40
2023-12-07T10:39:56.337Z,14.25
2023-12-07T10:42:46.212Z,15.07
2023-12-07T10:45:35.642Z,14.95
2023-12-07T10:48:22.825Z,13.60
2023-12-07T10:51:11.852Z,14.95
2023-12-07T10:53:59.679Z,16.15
2023-12-07T10:56:47.638Z,14.20
2023-12-07T10:59:36.450Z,14.27
2023-12-07T11:02:23.825Z,13.90
2023-12-07T11:05:11.296Z,14.02
2023-12-07T11:08:22.804Z,14.73
2023-12-07T11:11:31.005Z,13.95
2023-12-07T11:14:18.442Z,14.85
2023-12-07T11:17:05.681Z,13.68
2023-12-07T11:19:53.511Z,14.75
2023-12-07T11:22:42.161Z,17.40
2023-12-07T11:25:29.180Z,15.40
2023-12-07T11:28:16.510Z,14.93
2023-12-07T11:31:03.621Z,14.45
2023-12-07T11:33:51.095Z,14.35
2023-12-07T11:36:38.391Z,14.30
2023-12-07T11:39:29.837Z,15.73
2023-12-07T11:42:19.036Z,15.13
2023-12-07T11:45:08.936Z,14.15
2023-12-07T11:48:16.209Z,14.63
2023-12-07T11:51:06.910Z,15.68
2023-12-07T11:53:53.718Z,15.00
2023-12-07T11:56:40.659Z,14.48
2023-12-07T11:59:33.705Z,15.40
2023-12-07T12:02:21.330Z,16.65
2023-12-07T12:05:10.905Z,16.67
2023-12-07T12:07:58.221Z,16.42
2023-12-07T12:10:45.626Z,19.55
2023-12-07T12:13:35.592Z,16.50
2023-12-07T12:16:22.582Z,17.58
2023-12-07T12:19:13.858Z,18.85
2023-12-07T12:22:06.269Z,17.05
2023-12-07T12:24:54.786Z,17.70
2023-12-07T12:27:41.929Z,17.67
2023-12-07T12:30:29.935Z,19.02
2023-12-07T12:33:16.761Z,16.92
2023-12-07T12:36:04.836Z,18.15
2023-12-07T12:38:51.983Z,18.25
2023-12-07T12:41:40.358Z,17.70
2023-12-07T12:44:34.054Z,17.77
2023-12-07T12:47:23.475Z,18.48
2023-12-07T12:50:11.748Z,18.50
2023-12-07T12:53:04.624Z,18.75
2023-12-07T12:55:54.089Z,19.95
2023-12-07T12:58:41.095Z,17.42
2023-12-07T13:01:28.152Z,18.08
2023-12-07T13:04:15.178Z,18.45
2023-12-07T13:07:02.066Z,18.33
2023-12-07T13:09:48.913Z,18.52
2023-12-07T13:12:36.477Z,20.27
2023-12-07T13:15:23.500Z,17.67
2023-12-07T13:18:10.545Z,17.50
2023-12-07T13:20:57.598Z,18.83
2023-12-07T13:23:47.472Z,18.98
2023-12-07T13:26:34.991Z,18.70
2023-12-07T13:29:32.224Z,18.52
2023-12-07T13:32:22.610Z,18.67
2023-12-07T13:35:09.702Z,16.88
2023-12-07T13:37:56.728Z,19.90
2023-12-07T13:40:43.572Z,18.88
2023-12-07T13:43:31.707Z,18.75
2023-12-07T13:49:09.698Z,19.50
2023-12-07T13:52:03.687Z,17.58
2023-12-07T13:54:54.454Z,18.85
2023-12-07T13:57:41.932Z,19.02
2023-12-07T14:00:29.066Z,19.50
2023-12-07T14:03:16.060Z,19.10
2023-12-07T14:06:09.460Z,18.65
2023-12-07T14:09:03.865Z,18.80
2023-12-07T14:11:50.711Z,17.77
2023-12-07T14:14:37.694Z,20.13
2023-12-07T14:17:32.204Z,17.50
2023-12-07T14:20:35.622Z,18.10
2023-12-07T14:23:32.664Z,19.58
2023-12-07T14:26:19.591Z,20.23
2023-12-07T14:29:06.606Z,18.67
2023-12-07T14:31:54.471Z,20.80
2023-12-07T14:34:41.643Z,19.35
2023-12-07T14:37:29.353Z,20.05
2023-12-07T14:40:20.231Z,18.23
2023-12-07T14:43:07.278Z,19.92
2023-12-07T14:45:54.167Z,17.70
2023-12-07T14:48:41.215Z,17.60
2023-12-07T14:51:28.168Z,18.35
2023-12-07T14:54:20.297Z,18.90
2023-12-07T14:57:13.224Z,18.85
2023-12-07T15:00:00.412Z,17.10
2023-12-07T15:02:47.470Z,16.48
2023-12-07T15:05:35.009Z,16.60
2023-12-07T15:08:22.023Z,17.38
2023-12-07T15:11:08.933Z,17.70
2023-12-07T15:13:55.841Z,17.52
2023-12-07T15:16:42.692Z,17.40
2023-12-07T15:19:29.741Z,18.42
2023-12-07T15:22:16.688Z,18.00
2023-12-07T15:25:05.994Z,16.45
2023-12-07T15:30:42.561Z,16.48
2023-12-07T15:33:29.568Z,15.45
2023-12-07T15:36:16.480Z,16.40
2023-12-07T15:39:03.602Z,17.70
2023-12-07T15:41:50.532Z,18.50
2023-12-07T15:44:37.589Z,19.02
2023-12-07T15:47:24.815Z,15.25
2023-12-07T15:50:12.754Z,17.95
2023-12-07T15:52:59.581Z,15.70
2023-12-07T15:55:47.360Z,15.27
2023-12-07T15:58:34.342Z,17.10
2023-12-07T16:01:21.243Z,17.05
2023-12-07T16:04:08.126Z,15.52
2023-12-07T16:06:55.033Z,16.27
2023-12-07T16:09:44.994Z,16.80
2023-12-07T16:12:31.856Z,17.05
2023-12-07T16:15:18.782Z,16.45
2023-12-07T16:18:05.942Z,16.67
2023-12-07T16:20:53.026Z,17.63
2023-12-07T16:23:39.923Z,16.90
2023-12-07T16:26:26.858Z,19.33
2023-12-07T16:29:13.785Z,17.05
2023-12-07T16:32:01.014Z,16.88
2023-12-07T16:34:48.721Z,16.13
2023-12-07T16:37:35.578Z,18.52
2023-12-07T16:40:22.438Z,17.33
2023-12-07T16:43:09.312Z,18.67
2023-12-07T16:45:56.183Z,17.13
2023-12-07T16:48:43.376Z,17.45
2023-12-07T16:51:30.364Z,18.00
2023-12-07T16:54:18.021Z,17.92
2023-12-07T16:57:05.098Z,16.10
2023-12-07T16:59:52.008Z,18.27
2023-12-07T17:02:39.186Z,18.60
2023-12-07T17:05:26.136Z,18.25
2023-12-07T17:08:13.113Z,18.15
2023-12-07T17:10:59.955Z,19.75
2023-12-07T17:13:46.786Z,19.40
2023-12-07T17:16:34.018Z,18.92
2023-12-07T17:19:21.267Z,19.27
2023-12-07T17:22:09.716Z,21.83
2023-12-07T17:24:56.577Z,20.40
2023-12-07T17:27:43.425Z,20.10
2023-12-07T17:30:30.278Z,18.73
2023-12-07T17:33:17.249Z,20.02
2023-12-07T17:36:04.429Z,21.02
2023-12-07T17:38:52.546Z,21.95
2023-12-07T17:41:39.552Z,18.45
2023-12-07T17:44:26.476Z,21.27
2023-12-07T17:47:13.327Z,21.17
2023-12-07T17:50:00.265Z,18.98
2023-12-07T17:52:47.514Z,19.77
2023-12-07T17:55:34.890Z,21.20
2023-12-07T17:58:21.687Z,20.20
2023-12-07T18:01:08.555Z,20.73
2023-12-07T18:03:58.569Z,20.90
2023-12-07T18:06:46.727Z,22.27
2023-12-07T18:09:33.577Z,21.15
2023-12-07T18:12:20.425Z,21.55
2023-12-07T18:15:09.088Z,20.90
2023-12-07T18:17:56.085Z,19.05
2023-12-07T18:20:43.811Z,22.10
2023-12-07T18:23:30.829Z,20.63
2023-12-07T18:26:17.679Z,25.85
2023-12-07T18:29:06.294Z,22.73
2023-12-07T18:31:53.174Z,21.70
2023-12-07T18:34:41.633Z,21.48
2023-12-07T18:37:29.196Z,20.15
2023-12-07T18:40:16.055Z,20.75
2023-12-07T18:43:03.426Z,21.30
2023-12-07T18:45:50.686Z,20.02
2023-12-07T18:48:37.683Z,21.05
2023-12-07T18:51:24.700Z,20.65
2023-12-07T18:54:11.821Z,20.30
2023-12-07T18:56:58.772Z,21.55
2023-12-07T18:59:45.749Z,22.05
2023-12-07T19:02:32.767Z,21.65
2023-12-07T19:05:19.670Z,21.40
2023-12-07T19:08:11.142Z,21.40
2023-12-07T19:10:58.004Z,20.55
2023-12-07T19:13:44.846Z,22.52
2023-12-07T19:16:31.705Z,21.85
2023-12-07T19:19:18.668Z,21.58
2023-12-07T19:22:05.563Z,22.60
2023-12-07T19:24:52.442Z,21.02
2023-12-07T19:27:39.287Z,21.70
2023-12-07T19:30:26.163Z,21.58
2023-12-07T19:33:13.101Z,21.60
2023-12-07T19:36:00.568Z,19.75
2023-12-07T19:38:47.492Z,21.33
2023-12-07T19:41:35.109Z,21.15
2023-12-07T19:44:21.988Z,22.60
2023-12-07T19:47:08.816Z,20.10
2023-12-07T19:49:57.055Z,22.70
2023-12-07T19:52:44.029Z,20.93
2023-12-07T19:55:31.774Z,21.33
2023-12-07T19:58:18.813Z,20.27
2023-12-07T20:01:07.748Z,21.45
2023-12-07T20:03:54.740Z,20.20
2023-12-07T20:06:42.682Z,20.40
2023-12-07T20:09:30.060Z,21.53
2023-12-07T20:12:16.890Z,19.17
2023-12-07T20:15:05.021Z,20.98
2023-12-07T20:17:52.027Z,19.67
2023-12-07T20:20:38.924Z,20.00
2023-12-07T20:23:25.857Z,20.02
2023-12-07T20:26:16.382Z,21.95
2023-12-07T20:29:05.145Z,20.13
2023-12-07T20:31:51.978Z,19.13
2023-12-07T20:34:38.824Z,21.83
2023-12-07T20:37:25.921Z,21.17
2023-12-07T20:40:13.405Z,20.67
2023-12-07T20:43:03.591Z,21.40
2023-12-07T20:49:19.167Z,20.15
2023-12-07T20:52:07.014Z,19.10
2023-12-07T20:54:54.287Z,21.42
2023-12-07T20:57:41.203Z,21.95
2023-12-07T21:00:28.205Z,18.58
2023-12-07T21:03:15.118Z,20.55
2023-12-07T21:06:02.040Z,20.80
2023-12-07T21:08:49.014Z,20.83
2023-12-07T21:11:36.638Z,20.23
2023-12-07T21:14:23.709Z,19.27
2023-12-07T21:17:14.326Z,21.02
2023-12-07T21:20:01.534Z,19.38
2023-12-07T21:22:48.934Z,20.70
2023-12-07T21:25:36.049Z,21.02
2023-12-07T21:28:22.894Z,23.10
2023-12-07T21:31:09.907Z,23.88
2023-12-07T21:33:56.867Z,24.13
2023-12-07T21:36:46.853Z,24.27
2023-12-07T21:39:33.741Z,24.27
2023-12-07T21:42:20.569Z,25.88
2023-12-07T21:45:07.676Z,25.95
2023-12-07T21:47:54.728Z,24.83
2023-12-07T21:50:41.679Z,24.67
2023-12-07T21:53:28.646Z,24.48
2023-12-07T21:56:15.543Z,24.23
2023-12-07T21:59:02.782Z,23.80
2023-12-07T22:01:49.600Z,24.67
2023-12-07T22:04:37.696Z,24.50
2023-12-07T22:07:24.959Z,24.60
2023-12-07T22:10:18.684Z,23.48
2023-12-07T22:13:13.674Z,23.20
2023-12-07T22:16:03.066Z,23.58
2023-12-07T22:18:50.071Z,21.15
2023-12-07T22:21:37.008Z,23.33
2023-12-07T22:24:23.865Z,22.55
2023-12-07T22:27:10.844Z,22.08
2023-12-07T22:29:57.912Z,23.00
2023-12-07T22:32:45.962Z,23.83
2023-12-07T22:35:33.389Z,22.47
2023-12-07T22:38:20.344Z,24.92
2023-12-07T22:41:07.228Z,21.75
2023-12-07T22:43:54.503Z,22.23
2023-12-07T22:46:47.725Z,22.30
2023-12-07T22:49:35.023Z,21.38
2023-12-07T22:52:22.070Z,23.58
2023-12-07T22:55:09.089Z,21.00
2023-12-07T22:57:56.065Z,22.73
2023-12-07T23:00:42.908Z,21.88
2023-12-07T23:03:29.789Z,21.77
2023-12-07T23:06:16.730Z,22.30
2023-12-07T23:09:04.251Z,22.00
2023-12-07T23:11:51.168Z,21.77
2023-12-07T23:14:38.067Z,22.40
2023-12-07T23:17:25.117Z,22.83
2023-12-07T23:20:12.156Z,21.20
2023-12-07T23:22:59.116Z,22.55
2023-12-07T23:25:46.003Z,21.52
2023-12-07T23:28:32.845Z,23.55
2023-12-07T23:31:19.756Z,22.63
2023-12-07T23:34:06.756Z,21.90
2023-12-07T23:36:53.743Z,23.65
2023-12-07T23:39:40.554Z,23.15
2023-12-07T23:42:27.448Z,20.77
2023-12-07T23:45:14.380Z,21.13
2023-12-07T23:48:01.411Z,21.13
2023-12-07T23:50:48.387Z,22.80
2023-12-07T23:53:35.300Z,20.25
2023-12-07T23:56:22.201Z,22.77
2023-12-07T23:59:09.046Z,20.95
